Wetterdaten: Woche 20.04.26 - 26.04.26 (KW17)
Datum Zeit Temp. A. Feuchte A. Luftdruck Niederschlag Windgeschw. Windrichtung Sonnenschein Taupunkt Windchill Windböen
20.04.2026 00:00 11,7 °C 62 % 1015,3 hPa 0,0 l/m² 0,8 km/h (0 Bft) S-SO 0,00 h 4,7 °C 11,7 °C 1,4 km/h (1 Bft)
20.04.2026 01:00 10,8 °C 64 % 1015,4 hPa 0,0 l/m² 0,3 km/h (0 Bft) SW 0,00 h 4,3 °C 10,8 °C 0,6 km/h (0 Bft)
20.04.2026 02:00 10,7 °C 47 % 1015,2 hPa 0,0 l/m² 4,9 km/h (1 Bft) SO 0,00 h -0,2 °C 10,7 °C 7,1 km/h (2 Bft)
20.04.2026 03:00 10,3 °C 42 % 1015,3 hPa 0,0 l/m² 3,7 km/h (1 Bft) SO 0,00 h -2,2 °C 10,3 °C 5,0 km/h (1 Bft)
20.04.2026 04:00 9,6 °C 40 % 1015,3 hPa 0,0 l/m² 2,6 km/h (1 Bft) W-SW 0,00 h -3,1 °C 9,6 °C 3,5 km/h (1 Bft)
20.04.2026 05:00 8,4 °C 42 % 1015,0 hPa 0,0 l/m² 0,5 km/h (0 Bft) N-NO 0,00 h -3,7 °C 8,4 °C 1,1 km/h (1 Bft)
20.04.2026 06:00 8,6 °C 42 % 1015,0 hPa 0,0 l/m² 1,5 km/h (1 Bft) W 0,00 h -3,7 °C 8,6 °C 2,1 km/h (1 Bft)
20.04.2026 07:00 9,0 °C 41 % 1015,1 hPa 0,0 l/m² 1,4 km/h (1 Bft) SW 0,00 h -3,6 °C 9,0 °C 2,2 km/h (1 Bft)
20.04.2026 08:00 9,3 °C 41 % 1015,2 hPa 0,0 l/m² 1,3 km/h (1 Bft) O-SO 0,00 h -3,1 °C 9,3 °C 2,5 km/h (1 Bft)
20.04.2026 09:00 10,3 °C 42 % 1015,1 hPa 0,0 l/m² 2,0 km/h (1 Bft) SO 0,00 h -2,0 °C 10,3 °C 2,9 km/h (1 Bft)
20.04.2026 10:00 11,6 °C 42 % 1015,0 hPa 0,0 l/m² 2,4 km/h (1 Bft) SO 0,00 h -0,9 °C 11,6 °C 3,4 km/h (1 Bft)
20.04.2026 11:00 13,1 °C 40 % 1014,8 hPa 0,0 l/m² 2,4 km/h (1 Bft) O-SO 0,00 h -0,1 °C 13,1 °C 3,7 km/h (1 Bft)
20.04.2026 12:00 14,3 °C 37 % 1014,5 hPa 0,0 l/m² 2,8 km/h (1 Bft) SW 0,00 h -0,0 °C 14,3 °C 4,5 km/h (1 Bft)
20.04.2026 13:00 15,3 °C 35 % 1013,8 hPa 0,0 l/m² 4,0 km/h (1 Bft) W-SW 0,47 h -0,2 °C 15,3 °C 5,4 km/h (1 Bft)
20.04.2026 14:00 15,3 °C 32 % 1013,5 hPa 0,0 l/m² 4,0 km/h (1 Bft) NW 0,63 h -1,4 °C 15,3 °C 6,0 km/h (2 Bft)
20.04.2026 15:00 15,4 °C 31 % 1013,2 hPa 0,0 l/m² 3,7 km/h (1 Bft) SO 0,55 h -1,8 °C 15,4 °C 4,6 km/h (1 Bft)
20.04.2026 16:00 15,8 °C 29 % 1012,8 hPa 0,0 l/m² 4,0 km/h (1 Bft) W-SW 0,60 h -2,4 °C 15,8 °C 5,2 km/h (1 Bft)
20.04.2026 17:00 16,1 °C 28 % 1012,8 hPa 0,0 l/m² 3,3 km/h (1 Bft) NW 0,72 h -2,4 °C 16,1 °C 4,4 km/h (1 Bft)
20.04.2026 18:00 14,5 °C 28 % 1012,9 hPa 0,0 l/m² 1,7 km/h (1 Bft) N-NO 0,00 h -3,6 °C 14,5 °C 2,7 km/h (1 Bft)
20.04.2026 19:00 13,5 °C 28 % 1013,1 hPa 0,0 l/m² 0,7 km/h (0 Bft) W-NW 0,00 h -4,6 °C 13,5 °C 1,1 km/h (0 Bft)
20.04.2026 20:00 12,4 °C 29 % 1013,7 hPa 0,0 l/m² 0,2 km/h (0 Bft) N 0,00 h -5,1 °C 12,4 °C 0,3 km/h (0 Bft)
20.04.2026 21:00 11,6 °C 31 % 1014,0 hPa 0,0 l/m² 0,0 km/h (0 Bft) N 0,00 h -5,2 °C 11,6 °C 0,1 km/h (0 Bft)
20.04.2026 22:00 10,3 °C 38 % 1014,8 hPa 0,0 l/m² 0,3 km/h (0 Bft) NO 0,00 h -3,4 °C 10,3 °C 0,7 km/h (0 Bft)
20.04.2026 23:00 8,5 °C 48 % 1015,3 hPa 0,0 l/m² 0,1 km/h (0 Bft) N 0,00 h -1,8 °C 8,5 °C 0,2 km/h (0 Bft)
21.04.2026 00:00 7,6 °C 49 % 1015,7 hPa 0,0 l/m² 0,0 km/h (0 Bft) N 0,00 h -2,5 °C 7,6 °C 0,0 km/h (0 Bft)
21.04.2026 01:00 6,2 °C 52 % 1015,7 hPa 0,0 l/m² 0,0 km/h (0 Bft) N 0,00 h -2,8 °C 6,2 °C 0,0 km/h (0 Bft)
21.04.2026 02:00 5,7 °C 54 % 1015,2 hPa 0,0 l/m² 0,0 km/h (0 Bft) N 0,00 h -3,0 °C 5,7 °C 0,0 km/h (0 Bft)
21.04.2026 03:00 5,7 °C 55 % 1015,2 hPa 0,0 l/m² 0,0 km/h (0 Bft) N 0,00 h -2,8 °C 5,7 °C 0,0 km/h (0 Bft)
21.04.2026 04:00 6,0 °C 55 % 1015,1 hPa 0,0 l/m² 0,0 km/h (0 Bft) N 0,00 h -2,5 °C 6,0 °C 0,0 km/h (0 Bft)
21.04.2026 05:00 6,0 °C 55 % 1015,0 hPa 0,0 l/m² 0,0 km/h (0 Bft) N 0,00 h -2,4 °C 6,0 °C 0,2 km/h (0 Bft)
21.04.2026 06:00 6,1 °C 55 % 1015,1 hPa 0,0 l/m² 0,3 km/h (0 Bft) N 0,00 h -2,3 °C 6,1 °C 0,5 km/h (0 Bft)
21.04.2026 07:00 6,4 °C 56 % 1015,3 hPa 0,0 l/m² 0,9 km/h (0 Bft) O-NO 0,00 h -1,7 °C 6,4 °C 1,7 km/h (1 Bft)
21.04.2026 08:00 6,8 °C 56 % 1015,6 hPa 0,0 l/m² 1,4 km/h (1 Bft) W-SW 0,00 h -1,4 °C 6,8 °C 2,3 km/h (1 Bft)
21.04.2026 09:00 7,2 °C 55 % 1015,8 hPa 0,0 l/m² 2,0 km/h (1 Bft) W-SW 0,00 h -1,2 °C 7,2 °C 2,5 km/h (1 Bft)
21.04.2026 10:00 7,0 °C 55 % 1016,0 hPa 0,0 l/m² 2,1 km/h (1 Bft) W-SW 0,00 h -1,5 °C 7,0 °C 3,3 km/h (1 Bft)
21.04.2026 11:00 8,3 °C 52 % 1016,0 hPa 0,0 l/m² 3,2 km/h (1 Bft) W-SW 0,00 h -0,9 °C 8,3 °C 4,4 km/h (1 Bft)
21.04.2026 12:00 9,6 °C 49 % 1016,1 hPa 0,0 l/m² 3,4 km/h (1 Bft) W-SW 0,00 h -0,5 °C 9,6 °C 4,7 km/h (1 Bft)
21.04.2026 13:00 9,3 °C 48 % 1016,3 hPa 0,0 l/m² 2,4 km/h (1 Bft) W-SW 0,00 h -1,0 °C 9,3 °C 3,2 km/h (1 Bft)
21.04.2026 14:00 9,9 °C 49 % 1016,6 hPa 0,0 l/m² 2,8 km/h (1 Bft) NW 0,33 h -0,4 °C 9,9 °C 3,5 km/h (1 Bft)
21.04.2026 15:00 8,3 °C 54 % 1017,3 hPa 0,0 l/m² 1,7 km/h (1 Bft) S 0,00 h -0,5 °C 8,3 °C 2,8 km/h (1 Bft)
21.04.2026 16:00 8,7 °C 55 % 1017,6 hPa 0,0 l/m² 2,4 km/h (1 Bft) W 0,00 h 0,1 °C 8,7 °C 3,1 km/h (1 Bft)
21.04.2026 17:00 9,0 °C 51 % 1017,9 hPa 0,0 l/m² 2,5 km/h (1 Bft) W-SW 0,00 h -0,5 °C 9,0 °C 3,6 km/h (1 Bft)
21.04.2026 18:00 8,9 °C 50 % 1018,0 hPa 0,0 l/m² 2,5 km/h (1 Bft) W-SW 0,00 h -0,8 °C 8,9 °C 3,0 km/h (1 Bft)
21.04.2026 19:00 8,4 °C 49 % 1018,5 hPa 0,0 l/m² 2,6 km/h (1 Bft) W-SW 0,00 h -1,7 °C 8,4 °C 3,3 km/h (1 Bft)
21.04.2026 20:00 8,0 °C 47 % 1019,2 hPa 0,0 l/m² 3,1 km/h (1 Bft) W-NW 0,00 h -2,7 °C 8,0 °C 3,9 km/h (1 Bft)
21.04.2026 21:00 7,6 °C 45 % 1019,8 hPa 0,0 l/m² 2,5 km/h (1 Bft) W-SW 0,00 h -3,6 °C 7,6 °C 3,2 km/h (1 Bft)
21.04.2026 22:00 7,2 °C 43 % 1020,1 hPa 0,0 l/m² 2,8 km/h (1 Bft) W-SW 0,00 h -4,5 °C 7,2 °C 3,9 km/h (1 Bft)
21.04.2026 23:00 6,7 °C 44 % 1020,3 hPa 0,0 l/m² 2,5 km/h (1 Bft) W-SW 0,00 h -4,7 °C 6,7 °C 3,6 km/h (1 Bft)
22.04.2026 00:00 6,7 °C 43 % 1020,2 hPa 0,0 l/m² 2,4 km/h (1 Bft) N-NW 0,00 h -5,0 °C 6,7 °C 3,0 km/h (1 Bft)
22.04.2026 01:00 6,5 °C 42 % 1020,2 hPa 0,0 l/m² 2,0 km/h (1 Bft) W-SW 0,00 h -5,4 °C 6,5 °C 2,7 km/h (1 Bft)
22.04.2026 02:00 6,8 °C 42 % 1020,0 hPa 0,0 l/m² 2,1 km/h (1 Bft) W-SW 0,00 h -5,3 °C 6,8 °C 2,9 km/h (1 Bft)
22.04.2026 03:00 6,8 °C 41 % 1019,8 hPa 0,0 l/m² 2,1 km/h (1 Bft) W-SW 0,00 h -5,5 °C 6,8 °C 2,7 km/h (1 Bft)
22.04.2026 04:00 6,8 °C 41 % 1019,6 hPa 0,0 l/m² 1,7 km/h (1 Bft) W 0,00 h -5,6 °C 6,8 °C 2,2 km/h (1 Bft)
22.04.2026 05:00 6,6 °C 40 % 1019,3 hPa 0,0 l/m² 1,6 km/h (1 Bft) W-NW 0,00 h -6,0 °C 6,6 °C 2,4 km/h (1 Bft)
22.04.2026 06:00 6,8 °C 40 % 1019,3 hPa 0,0 l/m² 2,2 km/h (1 Bft) W-SW 0,00 h -6,0 °C 6,8 °C 3,3 km/h (1 Bft)
22.04.2026 07:00 7,1 °C 39 % 1020,1 hPa 0,0 l/m² 2,3 km/h (1 Bft) W-SW 0,00 h -5,9 °C 7,1 °C 3,2 km/h (1 Bft)
22.04.2026 08:00 7,9 °C 39 % 1020,7 hPa 0,0 l/m² 2,7 km/h (1 Bft) W-SW 0,00 h -5,2 °C 7,9 °C 3,4 km/h (1 Bft)
22.04.2026 09:00 9,0 °C 38 % 1021,1 hPa 0,0 l/m² 2,6 km/h (1 Bft) W-SW 0,00 h -4,5 °C 9,0 °C 3,6 km/h (1 Bft)
22.04.2026 10:00 10,1 °C 36 % 1021,2 hPa 0,0 l/m² 3,1 km/h (1 Bft) N-NO 0,00 h -4,4 °C 10,1 °C 4,2 km/h (1 Bft)
22.04.2026 11:00 11,5 °C 33 % 1021,1 hPa 0,0 l/m² 2,0 km/h (1 Bft) W-SW 0,00 h -4,3 °C 11,5 °C 2,8 km/h (1 Bft)
22.04.2026 12:00 12,3 °C 30 % 1020,6 hPa 0,0 l/m² 2,3 km/h (1 Bft) O-SO 0,00 h -4,9 °C 12,3 °C 3,7 km/h (1 Bft)
22.04.2026 13:00 13,4 °C 29 % 1020,3 hPa 0,0 l/m² 2,7 km/h (1 Bft) W 0,40 h -4,3 °C 13,4 °C 3,6 km/h (1 Bft)
22.04.2026 14:00 14,1 °C 28 % 1020,0 hPa 0,0 l/m² 3,0 km/h (1 Bft) S 1,00 h -4,3 °C 14,1 °C 3,8 km/h (1 Bft)
22.04.2026 15:00 15,0 °C 27 % 1019,6 hPa 0,0 l/m² 3,9 km/h (1 Bft) SW 1,00 h -3,7 °C 15,0 °C 5,4 km/h (1 Bft)
22.04.2026 16:00 15,7 °C 26 % 1019,4 hPa 0,0 l/m² 3,2 km/h (1 Bft) N-NO 1,00 h -3,6 °C 15,7 °C 4,4 km/h (1 Bft)
22.04.2026 17:00 16,1 °C 25 % 1019,4 hPa 0,0 l/m² 2,6 km/h (1 Bft) W-SW 1,00 h -3,9 °C 16,1 °C 3,8 km/h (1 Bft)
22.04.2026 18:00 14,9 °C 25 % 1019,6 hPa 0,0 l/m² 1,7 km/h (1 Bft) W-SW 1,00 h -4,9 °C 14,9 °C 2,5 km/h (1 Bft)
22.04.2026 19:00 13,0 °C 25 % 1020,0 hPa 0,0 l/m² 1,1 km/h (0 Bft) W-NW 0,17 h -6,5 °C 13,0 °C 1,7 km/h (1 Bft)
22.04.2026 20:00 10,4 °C 25 % 1020,6 hPa 0,0 l/m² 0,5 km/h (0 Bft) W-SW 0,00 h -8,7 °C 10,4 °C 0,8 km/h (0 Bft)
22.04.2026 21:00 9,9 °C 25 % 1020,8 hPa 0,0 l/m² 0,8 km/h (0 Bft) SW 0,00 h -9,2 °C 9,9 °C 1,3 km/h (1 Bft)
22.04.2026 22:00 10,1 °C 25 % 1020,9 hPa 0,0 l/m² 2,3 km/h (1 Bft) W-SW 0,00 h -9,0 °C 10,1 °C 3,2 km/h (1 Bft)
22.04.2026 23:00 10,0 °C 25 % 1021,1 hPa 0,0 l/m² 2,5 km/h (1 Bft) W 0,00 h -9,1 °C 10,0 °C 3,3 km/h (1 Bft)
23.04.2026 00:00 10,0 °C 25 % 1021,2 hPa 0,0 l/m² 2,8 km/h (1 Bft) W-SW 0,00 h -9,1 °C 10,0 °C 3,7 km/h (1 Bft)
23.04.2026 01:00 9,9 °C 25 % 1021,2 hPa 0,0 l/m² 2,8 km/h (1 Bft) W 0,00 h -9,1 °C 9,9 °C 4,7 km/h (1 Bft)
23.04.2026 02:00 10,0 °C 25 % 1021,0 hPa 0,0 l/m² 2,8 km/h (1 Bft) W-SW 0,00 h -9,1 °C 10,0 °C 4,1 km/h (1 Bft)
23.04.2026 03:00 9,8 °C 25 % 1020,7 hPa 0,0 l/m² 2,5 km/h (1 Bft) W 0,00 h -9,3 °C 9,8 °C 3,5 km/h (1 Bft)
23.04.2026 04:00 9,3 °C 26 % 1020,6 hPa 0,0 l/m² 2,4 km/h (1 Bft) S 0,00 h -9,4 °C 9,3 °C 3,7 km/h (1 Bft)
23.04.2026 05:00 9,4 °C 27 % 1020,2 hPa 0,0 l/m² 3,3 km/h (1 Bft) W-SW 0,00 h -8,7 °C 9,4 °C 4,0 km/h (1 Bft)
23.04.2026 06:00 9,1 °C 28 % 1020,2 hPa 0,0 l/m² 3,6 km/h (1 Bft) W-SW 0,00 h -8,4 °C 9,1 °C 5,0 km/h (1 Bft)
23.04.2026 07:00 9,9 °C 29 % 1020,4 hPa 0,0 l/m² 3,0 km/h (1 Bft) W-SW 0,00 h -7,2 °C 9,9 °C 4,5 km/h (1 Bft)
23.04.2026 08:00 11,0 °C 29 % 1020,4 hPa 0,0 l/m² 3,6 km/h (1 Bft) O-SO 0,00 h -6,1 °C 11,0 °C 5,6 km/h (1 Bft)
23.04.2026 09:00 12,4 °C 29 % 1020,2 hPa 0,0 l/m² 3,9 km/h (1 Bft) SO 0,00 h -5,1 °C 12,4 °C 5,3 km/h (1 Bft)
23.04.2026 10:00 13,8 °C 29 % 1020,1 hPa 0,0 l/m² 4,2 km/h (1 Bft) W-SW 0,00 h -3,9 °C 13,8 °C 6,5 km/h (2 Bft)
23.04.2026 11:00 15,4 °C 27 % 1019,5 hPa 0,0 l/m² 4,3 km/h (1 Bft) O-SO 0,00 h -3,6 °C 15,4 °C 5,7 km/h (1 Bft)
23.04.2026 12:00 16,3 °C 25 % 1018,9 hPa 0,0 l/m² 3,8 km/h (1 Bft) N-NO 0,00 h -3,6 °C 16,3 °C 4,7 km/h (1 Bft)
23.04.2026 13:00 16,3 °C 25 % 1018,1 hPa 0,0 l/m² 3,9 km/h (1 Bft) W-SW 0,00 h -3,8 °C 16,3 °C 5,1 km/h (1 Bft)
23.04.2026 14:00 16,5 °C 25 % 1017,4 hPa 0,0 l/m² 3,9 km/h (1 Bft) NW 0,00 h -3,6 °C 16,5 °C 5,1 km/h (1 Bft)
23.04.2026 15:00 18,6 °C 25 % 1016,8 hPa 0,0 l/m² 4,3 km/h (1 Bft) W 1,00 h -1,8 °C 18,6 °C 5,4 km/h (1 Bft)
23.04.2026 16:00 19,5 °C 25 % 1016,2 hPa 0,0 l/m² 5,1 km/h (1 Bft) W-SW 1,00 h -1,0 °C 19,5 °C 7,5 km/h (2 Bft)
23.04.2026 17:00 19,4 °C 25 % 1016,2 hPa 0,0 l/m² 4,3 km/h (1 Bft) W-SW 1,00 h -1,1 °C 19,4 °C 5,8 km/h (1 Bft)
23.04.2026 18:00 18,4 °C 25 % 1015,9 hPa 0,0 l/m² 3,9 km/h (1 Bft) SW 1,00 h -1,9 °C 18,4 °C 5,0 km/h (1 Bft)
23.04.2026 19:00 17,1 °C 25 % 1015,8 hPa 0,0 l/m² 3,5 km/h (1 Bft) SW 0,10 h -3,1 °C 17,1 °C 5,6 km/h (1 Bft)
23.04.2026 20:00 16,1 °C 25 % 1015,9 hPa 0,0 l/m² 3,3 km/h (1 Bft) O-NO 0,00 h -3,9 °C 16,1 °C 4,4 km/h (1 Bft)
23.04.2026 21:00 15,3 °C 25 % 1016,3 hPa 0,0 l/m² 1,5 km/h (1 Bft) S-SO 0,00 h -4,6 °C 15,3 °C 2,5 km/h (1 Bft)
23.04.2026 22:00 14,6 °C 25 % 1016,6 hPa 0,0 l/m² 1,8 km/h (1 Bft) W-SW 0,00 h -5,2 °C 14,6 °C 2,8 km/h (1 Bft)
23.04.2026 23:00 14,5 °C 25 % 1017,0 hPa 0,0 l/m² 1,3 km/h (1 Bft) SO 0,00 h -5,3 °C 14,5 °C 2,4 km/h (1 Bft)
24.04.2026 00:00 13,3 °C 25 % 1017,4 hPa 0,0 l/m² 1,3 km/h (1 Bft) O-SO 0,00 h -6,3 °C 13,3 °C 2,0 km/h (1 Bft)
24.04.2026 01:00 12,7 °C 25 % 1017,3 hPa 0,0 l/m² 1,5 km/h (1 Bft) SO 0,00 h -6,8 °C 12,7 °C 2,0 km/h (1 Bft)
24.04.2026 02:00 10,9 °C 25 % 1017,3 hPa 0,0 l/m² 0,6 km/h (0 Bft) S-SO 0,00 h -8,4 °C 10,9 °C 1,0 km/h (0 Bft)
24.04.2026 03:00 10,9 °C 25 % 1017,1 hPa 0,0 l/m² 1,4 km/h (1 Bft) S 0,00 h -8,3 °C 10,9 °C 2,6 km/h (1 Bft)
24.04.2026 04:00 10,1 °C 25 % 1017,3 hPa 0,0 l/m² 0,7 km/h (0 Bft) O 0,00 h -8,9 °C 10,1 °C 1,1 km/h (1 Bft)
24.04.2026 05:00 10,0 °C 26 % 1016,9 hPa 0,0 l/m² 1,4 km/h (1 Bft) W-SW 0,00 h -8,7 °C 10,0 °C 2,5 km/h (1 Bft)
24.04.2026 06:00 10,6 °C 27 % 1016,8 hPa 0,0 l/m² 2,5 km/h (1 Bft) W-SW 0,00 h -7,7 °C 10,6 °C 3,9 km/h (1 Bft)
24.04.2026 07:00 11,4 °C 27 % 1017,0 hPa 0,0 l/m² 2,1 km/h (1 Bft) W-SW 0,00 h -6,9 °C 11,4 °C 3,0 km/h (1 Bft)
24.04.2026 08:00 12,7 °C 27 % 1017,1 hPa 0,0 l/m² 1,9 km/h (1 Bft) SO 0,00 h -5,7 °C 12,7 °C 3,0 km/h (1 Bft)
24.04.2026 09:00 14,1 °C 29 % 1016,9 hPa 0,0 l/m² 2,4 km/h (1 Bft) W 0,00 h -3,8 °C 14,1 °C 3,2 km/h (1 Bft)
24.04.2026 10:00 16,0 °C 27 % 1016,5 hPa 0,0 l/m² 2,4 km/h (1 Bft) W 0,00 h -3,1 °C 16,0 °C 3,6 km/h (1 Bft)
24.04.2026 11:00 18,8 °C 25 % 1016,0 hPa 0,0 l/m² 3,2 km/h (1 Bft) W-SW 0,00 h -1,6 °C 18,8 °C 4,9 km/h (1 Bft)
24.04.2026 12:00 20,7 °C 25 % 1015,4 hPa 0,0 l/m² 3,9 km/h (1 Bft) W-SW 0,00 h -0,0 °C 20,7 °C 5,2 km/h (1 Bft)
24.04.2026 13:00 21,9 °C 25 % 1014,9 hPa 0,0 l/m² 4,5 km/h (1 Bft) W-SW 0,37 h 1,0 °C 21,9 °C 5,1 km/h (1 Bft)
24.04.2026 14:00 22,7 °C 25 % 1014,6 hPa 0,0 l/m² 3,9 km/h (1 Bft) W-SW 1,00 h 1,6 °C 22,7 °C 5,2 km/h (1 Bft)
24.04.2026 15:00 23,0 °C 25 % 1014,3 hPa 0,0 l/m² 3,8 km/h (1 Bft) W-SW 1,00 h 2,0 °C 23,0 °C 5,3 km/h (1 Bft)
24.04.2026 16:00 23,1 °C 25 % 1014,4 hPa 0,0 l/m² 3,9 km/h (1 Bft) W-SW 1,00 h 2,0 °C 23,1 °C 5,0 km/h (1 Bft)
24.04.2026 17:00 22,9 °C 25 % 1014,5 hPa 0,0 l/m² 3,6 km/h (1 Bft) W 1,00 h 1,9 °C 22,9 °C 4,8 km/h (1 Bft)
24.04.2026 18:00 21,8 °C 25 % 1014,4 hPa 0,0 l/m² 3,2 km/h (1 Bft) W 1,00 h 0,9 °C 21,8 °C 3,7 km/h (1 Bft)
24.04.2026 19:00 19,8 °C 25 % 1014,7 hPa 0,0 l/m² 2,2 km/h (1 Bft) W-SW 0,13 h -0,8 °C 19,8 °C 2,9 km/h (1 Bft)
24.04.2026 20:00 17,8 °C 25 % 1015,2 hPa 0,0 l/m² 1,6 km/h (1 Bft) N-NO 0,00 h -2,5 °C 17,8 °C 2,4 km/h (1 Bft)
24.04.2026 21:00 17,0 °C 25 % 1015,8 hPa 0,0 l/m² 1,8 km/h (1 Bft) W 0,00 h -3,2 °C 17,0 °C 2,7 km/h (1 Bft)
24.04.2026 22:00 15,6 °C 25 % 1015,9 hPa 0,0 l/m² 0,9 km/h (0 Bft) NW 0,00 h -4,4 °C 15,6 °C 1,5 km/h (1 Bft)
24.04.2026 23:00 13,9 °C 25 % 1016,1 hPa 0,0 l/m² 0,2 km/h (0 Bft) N 0,00 h -5,8 °C 13,9 °C 0,5 km/h (0 Bft)
25.04.2026 00:00 13,2 °C 25 % 1016,0 hPa 0,0 l/m² 0,2 km/h (0 Bft) N 0,00 h -6,4 °C 13,2 °C 0,3 km/h (0 Bft)
25.04.2026 01:00 12,1 °C 25 % 1016,1 hPa 0,0 l/m² 0,1 km/h (0 Bft) N 0,00 h -7,3 °C 12,1 °C 0,2 km/h (0 Bft)
25.04.2026 02:00 11,0 °C 28 % 1015,9 hPa 0,0 l/m² 0,0 km/h (0 Bft) N 0,00 h -6,7 °C 11,0 °C 0,0 km/h (0 Bft)
25.04.2026 03:00 10,0 °C 32 % 1015,8 hPa 0,0 l/m² 0,0 km/h (0 Bft) N 0,00 h -5,9 °C 10,0 °C 0,0 km/h (0 Bft)
25.04.2026 04:00 9,2 °C 33 % 1015,7 hPa 0,0 l/m² 0,0 km/h (0 Bft) N 0,00 h -6,3 °C 9,2 °C 0,0 km/h (0 Bft)
25.04.2026 05:00 8,4 °C 33 % 1015,5 hPa 0,0 l/m² 0,0 km/h (0 Bft) N 0,00 h -7,0 °C 8,4 °C 0,0 km/h (0 Bft)
25.04.2026 06:00 8,1 °C 34 % 1015,5 hPa 0,0 l/m² 0,1 km/h (0 Bft) N 0,00 h -6,8 °C 8,1 °C 0,1 km/h (0 Bft)
25.04.2026 07:00 9,9 °C 36 % 1015,8 hPa 0,0 l/m² 0,4 km/h (0 Bft) N 0,00 h -4,3 °C 9,9 °C 0,7 km/h (0 Bft)
25.04.2026 08:00 11,5 °C 37 % 1016,0 hPa 0,0 l/m² 0,3 km/h (0 Bft) N 0,00 h -2,7 °C 11,5 °C 0,8 km/h (0 Bft)
25.04.2026 09:00 13,2 °C 37 % 1015,7 hPa 0,0 l/m² 0,8 km/h (0 Bft) W-SW 0,00 h -1,2 °C 13,2 °C 1,3 km/h (1 Bft)
25.04.2026 10:00 15,7 °C 37 % 1015,3 hPa 0,0 l/m² 0,9 km/h (0 Bft) W-SW 0,00 h 1,1 °C 15,7 °C 1,4 km/h (1 Bft)
25.04.2026 11:00 18,7 °C 36 % 1015,0 hPa 0,0 l/m² 1,1 km/h (0 Bft) W-SW 0,00 h 3,4 °C 18,7 °C 1,6 km/h (1 Bft)
25.04.2026 12:00 21,5 °C 34 % 1014,5 hPa 0,0 l/m² 1,0 km/h (0 Bft) W 0,00 h 5,0 °C 21,5 °C 1,3 km/h (1 Bft)
25.04.2026 13:00 23,3 °C 31 % 1013,9 hPa 0,0 l/m² 1,2 km/h (1 Bft) NW 0,33 h 5,1 °C 23,3 °C 2,1 km/h (1 Bft)
25.04.2026 14:00 24,8 °C 27 % 1013,4 hPa 0,0 l/m² 1,7 km/h (1 Bft) W-SW 1,00 h 4,6 °C 24,8 °C 2,3 km/h (1 Bft)
25.04.2026 15:00 25,9 °C 25 % 1013,1 hPa 0,0 l/m² 2,4 km/h (1 Bft) W-SW 1,00 h 4,3 °C 25,9 °C 3,9 km/h (1 Bft)
25.04.2026 16:00 25,8 °C 25 % 1012,8 hPa 0,0 l/m² 2,3 km/h (1 Bft) W 1,00 h 4,3 °C 25,8 °C 3,0 km/h (1 Bft)
25.04.2026 17:00 25,5 °C 25 % 1012,9 hPa 0,0 l/m² 1,3 km/h (1 Bft) W 1,00 h 4,0 °C 25,5 °C 1,8 km/h (1 Bft)
25.04.2026 18:00 24,0 °C 25 % 1012,8 hPa 0,0 l/m² 1,4 km/h (1 Bft) W-SW 1,00 h 2,8 °C 24,0 °C 2,3 km/h (1 Bft)
25.04.2026 19:00 20,7 °C 25 % 1013,0 hPa 0,0 l/m² 0,5 km/h (0 Bft) SW 0,17 h -0,0 °C 20,7 °C 0,7 km/h (0 Bft)
25.04.2026 20:00 16,5 °C 25 % 1013,5 hPa 0,0 l/m² 0,1 km/h (0 Bft) N 0,00 h -3,6 °C 16,5 °C 0,1 km/h (0 Bft)
25.04.2026 21:00 15,1 °C 25 % 1014,4 hPa 0,0 l/m² 0,7 km/h (0 Bft) N-NO 0,00 h -4,7 °C 15,1 °C 0,9 km/h (0 Bft)
25.04.2026 22:00 16,7 °C 25 % 1014,7 hPa 0,0 l/m² 0,6 km/h (0 Bft) N-NO 0,00 h -3,4 °C 16,7 °C 0,8 km/h (0 Bft)
25.04.2026 23:00 16,0 °C 25 % 1014,8 hPa 0,0 l/m² 0,2 km/h (0 Bft) N 0,00 h -4,0 °C 16,0 °C 0,2 km/h (0 Bft)
26.04.2026 00:00 15,2 °C 25 % 1014,6 hPa 0,0 l/m² 0,3 km/h (0 Bft) N 0,00 h -4,7 °C 15,2 °C 0,5 km/h (0 Bft)
26.04.2026 01:00 16,3 °C 25 % 1014,3 hPa 0,0 l/m² 1,5 km/h (1 Bft) N-NO 0,00 h -3,7 °C 16,3 °C 2,2 km/h (1 Bft)
26.04.2026 02:00 16,8 °C 25 % 1014,1 hPa 0,0 l/m² 2,2 km/h (1 Bft) W-NW 0,00 h -3,4 °C 16,8 °C 3,4 km/h (1 Bft)
26.04.2026 03:00 16,1 °C 25 % 1014,4 hPa 0,0 l/m² 1,5 km/h (1 Bft) O-SO 0,00 h -3,9 °C 16,1 °C 2,9 km/h (1 Bft)
26.04.2026 04:00 14,3 °C 25 % 1015,0 hPa 0,0 l/m² 0,5 km/h (0 Bft) W 0,00 h -5,5 °C 14,3 °C 0,7 km/h (0 Bft)
26.04.2026 05:00 12,2 °C 25 % 1015,5 hPa 0,0 l/m² 0,5 km/h (0 Bft) O-SO 0,00 h -7,2 °C 12,2 °C 1,1 km/h (1 Bft)
26.04.2026 06:00 12,6 °C 25 % 1016,4 hPa 0,0 l/m² 1,3 km/h (1 Bft) W-SW 0,00 h -6,9 °C 12,6 °C 1,8 km/h (1 Bft)
26.04.2026 07:00 13,2 °C 25 % 1017,4 hPa 0,0 l/m² 2,1 km/h (1 Bft) S 0,00 h -6,4 °C 13,2 °C 3,0 km/h (1 Bft)
26.04.2026 08:00 13,8 °C 25 % 1018,1 hPa 0,0 l/m² 2,9 km/h (1 Bft) W 0,00 h -5,8 °C 13,8 °C 4,4 km/h (1 Bft)
26.04.2026 09:00 14,2 °C 25 % 1019,0 hPa 0,0 l/m² 3,6 km/h (1 Bft) W-SW 0,00 h -5,5 °C 14,2 °C 4,7 km/h (1 Bft)
26.04.2026 10:00 14,8 °C 26 % 1019,7 hPa 0,0 l/m² 2,9 km/h (1 Bft) S 0,00 h -4,4 °C 14,8 °C 3,7 km/h (1 Bft)
26.04.2026 11:00 15,2 °C 29 % 1020,3 hPa 0,0 l/m² 3,0 km/h (1 Bft) W 0,00 h -2,8 °C 15,2 °C 4,2 km/h (1 Bft)
26.04.2026 12:00 16,2 °C 28 % 1020,7 hPa 0,0 l/m² 3,0 km/h (1 Bft) W 0,00 h -2,1 °C 16,2 °C 4,8 km/h (1 Bft)
26.04.2026 13:00 17,0 °C 27 % 1020,6 hPa 0,0 l/m² 3,5 km/h (1 Bft) W-NW 0,37 h -2,1 °C 17,0 °C 4,7 km/h (1 Bft)
26.04.2026 14:00 18,0 °C 25 % 1021,1 hPa 0,0 l/m² 3,1 km/h (1 Bft) W 1,00 h -2,2 °C 18,0 °C 4,4 km/h (1 Bft)
26.04.2026 15:00 18,4 °C 25 % 1020,9 hPa 0,0 l/m² 2,8 km/h (1 Bft) W 1,00 h -2,0 °C 18,4 °C 4,1 km/h (1 Bft)
26.04.2026 16:00 18,4 °C 25 % 1021,0 hPa 0,0 l/m² 2,2 km/h (1 Bft) W-SW 1,00 h -1,9 °C 18,4 °C 2,9 km/h (1 Bft)
26.04.2026 17:00 18,1 °C 25 % 1021,5 hPa 0,0 l/m² 1,9 km/h (1 Bft) W-SW 1,00 h -2,3 °C 18,1 °C 2,7 km/h (1 Bft)
26.04.2026 18:00 16,8 °C 25 % 1021,7 hPa 0,0 l/m² 1,1 km/h (1 Bft) W-SW 1,00 h -3,3 °C 16,8 °C 1,7 km/h (1 Bft)
26.04.2026 19:00 14,3 °C 25 % 1022,2 hPa 0,0 l/m² 0,2 km/h (0 Bft) N 0,27 h -5,4 °C 14,3 °C 0,1 km/h (0 Bft)
26.04.2026 20:00 10,7 °C 25 % 1023,3 hPa 0,0 l/m² 0,0 km/h (0 Bft) N 0,00 h -8,5 °C 10,7 °C 0,0 km/h (0 Bft)
26.04.2026 21:00 9,3 °C 25 % 1023,8 hPa 0,0 l/m² 0,0 km/h (0 Bft) N 0,00 h -9,7 °C 9,3 °C 0,0 km/h (0 Bft)
26.04.2026 22:00 9,4 °C 25 % 1024,1 hPa 0,0 l/m² 0,0 km/h (0 Bft) N 0,00 h -9,6 °C 9,4 °C 0,0 km/h (0 Bft)
26.04.2026 23:00 9,4 °C 25 % 1024,3 hPa 0,0 l/m² 0,0 km/h (0 Bft) N 0,00 h -9,6 °C 9,4 °C 0,0 km/h (0 Bft)
Min-Datum _ 21.04.26 22.04.26 20.04.26 - 20.04.26 - - 26.04.26 21.04.26 20.04.26
_ Min-Zeit 02:06 16:52 16:54 - 01:22 - - 23:58 02:06 00:00
Minimum _ 5,5 °C 25 % 1012,6 hPa - 0,0 km/h (0 Bft) - - -10,1 °C 5,5 °C 0,0 km/h (0 Bft)
Max-Datum _ 25.04.26 20.04.26 26.04.26 20.04.26 20.04.26 - 20.04.26 25.04.26 25.04.26 23.04.26
_ Max-Zeit 15:26 01:50 23:14 00:00 02:36 - 13:00 13:50 15:26 12:45
Maximum _ 26,1 °C 67 % 1024,8 hPa 0,0 l/m² 6,8 km/h
SO (2 Bft)
- 0,02 h 6,1 °C 26,1 °C 24,0 km/h
N-NO (4 Bft)
Durchschnitt _ 13,0 °C 33 % 1017,1 hPa #0,0 l/m² 2,0 km/h (1 Bft) W-SW #29:36 h -3,5 °C 13,0 °C 2,8 km/h (1 Bft)